Time;durP1;ratioP1;P1;durP2;ratioP2;P2;SDS_P1;SDS_P2;PMS_P1;PMS_P2;Temp;Humidity;BMP_temperature;BMP_pressure;BME280_temperature;BME280_humidity;BME280_pressure;Samples;Min_cycle;Max_cycle;Signal;HPM_P1;HPM_P2
2022/10/24 00:00:13;;;;;;;12.77;7.80;;;;;;;11.83;77.41;100422.31;4913096;29;20048;-71
2022/10/24 00:02:40;;;;;;;12.55;7.70;;;;;;;12.09;76.88;100410.38;4913171;29;20055;-70
2022/10/24 00:05:07;;;;;;;13.77;8.27;;;;;;;11.93;77.02;100425.59;4912667;29;20108;-70
2022/10/24 00:07:33;;;;;;;12.25;8.15;;;;;;;11.91;77.40;100437.53;4913039;29;20055;-70
2022/10/24 00:10:00;;;;;;;13.40;8.43;;;;;;;12.14;76.50;100440.25;4912755;29;20061;-70
2022/10/24 00:12:26;;;;;;;19.65;8.70;;;;;;;11.86;77.45;100427.31;4914016;29;20052;-70
2022/10/24 00:14:53;;;;;;;13.75;7.88;;;;;;;11.73;78.25;100434.28;4913385;29;20048;-71
2022/10/24 00:17:20;;;;;;;15.30;8.15;;;;;;;11.53;79.10;100434.66;4912865;29;20048;-69
2022/10/24 00:19:46;;;;;;;14.27;8.20;;;;;;;11.50;79.45;100434.16;4913376;29;20055;-71
2022/10/24 00:22:13;;;;;;;21.02;9.45;;;;;;;11.53;79.55;100429.28;4913265;29;20056;-70
2022/10/24 00:24:39;;;;;;;15.95;8.25;;;;;;;11.52;79.85;100432.13;4912930;29;20044;-70
2022/10/24 00:27:05;;;;;;;18.48;9.50;;;;;;;11.58;79.18;100423.38;4913125;29;20055;-70
2022/10/24 00:29:32;;;;;;;21.38;9.60;;;;;;;11.40;79.91;100429.81;4912658;29;20048;-68
2022/10/24 00:31:58;;;;;;;17.42;11.05;;;;;;;11.31;80.37;100419.25;4913189;29;20052;-71
2022/10/24 00:34:25;;;;;;;20.48;11.05;;;;;;;11.41;80.15;100412.72;4913298;29;20048;-70
2022/10/24 00:36:51;;;;;;;18.98;11.52;;;;;;;11.49;80.23;100401.09;4913847;29;20063;-71
2022/10/24 00:39:18;;;;;;;21.40;10.57;;;;;;;11.40;80.24;100402.13;4916642;29;20052;-71
2022/10/24 00:41:44;;;;;;;24.20;11.10;;;;;;;11.32;80.34;100408.38;4916336;29;20048;-71
2022/10/24 00:44:22;;;;;;;17.23;10.50;;;;;;;11.39;79.67;100409.34;4915892;29;20864;-70
2022/10/24 00:47:09;;;;;;;17.30;11.00;;;;;;;11.31;80.29;100412.06;4916064;29;20052;-70
2022/10/24 00:49:42;;;;;;;20.27;10.60;;;;;;;11.14;80.94;100416.66;4915400;29;20404;-70
2022/10/24 00:52:10;;;;;;;19.48;10.70;;;;;;;11.45;80.10;100430.16;4915801;29;20055;-71
2022/10/24 00:54:39;;;;;;;19.73;10.50;;;;;;;11.42;79.88;100433.19;4898374;29;20515;-69
2022/10/24 00:57:21;;;;;;;18.60;10.25;;;;;;;11.56;79.52;100449.59;4916498;29;20048;-70
2022/10/24 00:59:54;;;;;;;13.93;10.15;;;;;;;11.42;79.80;100451.97;4916017;29;20394;-71
2022/10/24 01:02:20;;;;;;;19.50;9.98;;;;;;;11.53;79.60;100461.50;4916268;29;20122;-71
2022/10/24 01:04:47;;;;;;;18.00;9.82;;;;;;;11.77;78.94;100459.78;4916113;29;20052;-70
2022/10/24 01:07:46;;;;;;;20.05;10.43;;;;;;;11.80;78.64;100462.97;4916367;29;20055;-71
2022/10/24 01:10:46;;;;;;;18.98;9.75;;;;;;;11.80;78.61;100457.59;4848373;29;20158;-70
2022/10/24 01:13:30;;;;;;;14.05;9.63;;;;;;;11.62;79.33;100455.13;4915627;29;20052;-69
2022/10/24 01:16:24;;;;;;;17.20;9.32;;;;;;;11.93;78.06;100448.94;4915438;29;20059;-71
2022/10/24 01:19:06;;;;;;;16.33;9.68;;;;;;;11.84;78.42;100444.63;4915779;29;20051;-69
2022/10/24 01:21:36;;;;;;;20.30;10.02;;;;;;;11.67;79.20;100449.25;4915788;29;20044;-71
2022/10/24 01:24:22;;;;;;;13.48;9.50;;;;;;;11.51;79.92;100433.13;4916381;29;20457;-70
2022/10/24 01:27:16;;;;;;;18.23;10.02;;;;;;;11.70;79.09;100427.41;4915480;29;20069;-70
2022/10/24 01:29:51;;;;;;;20.63;10.05;;;;;;;11.44;79.71;100401.59;4909889;29;20048;-71
2022/10/24 01:32:21;;;;;;;12.07;8.65;;;;;;;11.40;79.99;100394.91;4915206;29;20103;-71
2022/10/24 01:34:51;;;;;;;14.05;9.13;;;;;;;11.49;79.69;100405.63;4915238;29;20056;-71
2022/10/24 01:37:22;;;;;;;14.77;9.18;;;;;;;11.73;79.06;100410.94;4915554;29;20420;-72
2022/10/24 01:39:53;;;;;;;12.70;9.02;;;;;;;11.54;79.50;100404.06;4915102;29;20508;-71
2022/10/24 01:42:23;;;;;;;16.65;8.65;;;;;;;11.76;78.69;100410.59;4915486;29;20052;-71
2022/10/24 01:44:55;;;;;;;14.13;8.45;;;;;;;11.60;78.63;100407.94;4915229;29;20048;-69
2022/10/24 01:47:40;;;;;;;14.80;8.05;;;;;;;11.46;79.53;100415.69;4914418;29;20385;-72
2022/10/24 01:50:12;;;;;;;15.27;9.60;;;;;;;11.58;79.56;100401.88;4915308;29;20040;-70
2022/10/24 01:52:41;;;;;;;14.50;9.65;;;;;;;11.81;78.85;100391.22;4915665;29;20047;-71
2022/10/24 01:55:09;;;;;;;19.63;9.90;;;;;;;11.48;79.45;100382.44;4914994;29;20121;-71
2022/10/24 01:57:37;;;;;;;16.05;9.50;;;;;;;11.39;79.91;100384.34;4915658;29;20056;-70
2022/10/24 02:00:06;;;;;;;15.48;8.70;;;;;;;11.50;79.38;100373.22;4914846;29;20052;-71
2022/10/24 02:02:42;;;;;;;14.95;8.57;;;;;;;11.74;78.83;100364.22;4915007;29;20095;-70
2022/10/24 02:05:34;;;;;;;23.73;9.73;;;;;;;11.69;78.39;100355.88;4898362;29;20100;-69
2022/10/24 02:08:05;;;;;;;17.55;9.43;;;;;;;11.67;78.79;100369.47;4906525;29;20048;-70
2022/10/24 02:10:36;;;;;;;16.42;9.30;;;;;;;11.59;79.09;100371.34;4914505;29;20055;-70
2022/10/24 02:13:09;;;;;;;17.15;9.15;;;;;;;11.40;79.27;100367.19;4915084;29;20051;-70
2022/10/24 02:15:42;;;;;;;18.23;9.20;;;;;;;11.47;79.33;100362.81;4915201;29;20047;-70
2022/10/24 02:18:10;;;;;;;16.17;9.18;;;;;;;11.50;79.33;100346.34;4910801;29;20294;-71
2022/10/24 02:20:47;;;;;;;19.65;9.15;;;;;;;11.30;79.55;100364.72;4915154;29;20052;-71
2022/10/24 02:23:29;;;;;;;19.00;8.52;;;;;;;11.42;79.46;100374.09;4914706;29;20071;-72
2022/10/24 02:26:00;;;;;;;17.02;9.20;;;;;;;11.27;79.41;100365.06;4914422;29;20416;-69
2022/10/24 02:28:34;;;;;;;13.52;8.38;;;;;;;11.38;79.45;100362.03;4914829;29;20052;-72
2022/10/24 02:31:10;;;;;;;12.68;8.23;;;;;;;11.44;78.61;100363.97;4914266;29;20134;-70
2022/10/24 02:33:40;;;;;;;12.00;8.20;;;;;;;11.20;79.44;100350.66;4914758;29;20048;-69
2022/10/24 02:36:11;;;;;;;17.42;8.52;;;;;;;11.26;79.50;100351.81;4914708;29;20055;-71
2022/10/24 02:38:41;;;;;;;13.25;8.65;;;;;;;10.97;80.53;100346.03;4914375;29;20040;-69
2022/10/24 02:41:13;;;;;;;18.23;8.60;;;;;;;10.89;80.71;100339.84;4911010;29;20389;-69
2022/10/24 02:43:43;;;;;;;12.80;8.57;;;;;;;10.99;80.53;100338.63;4913869;29;20059;-71
2022/10/24 02:46:12;;;;;;;14.73;9.18;;;;;;;11.18;80.13;100331.22;4913876;29;20075;-69
2022/10/24 02:48:44;;;;;;;15.80;8.65;;;;;;;11.19;79.99;100320.28;4914422;29;20496;-69
2022/10/24 02:51:13;;;;;;;13.60;8.40;;;;;;;11.21;79.48;100342.44;4914389;29;20055;-70
2022/10/24 02:53:39;;;;;;;16.15;9.25;;;;;;;11.21;79.43;100347.81;4914456;29;20052;-70
2022/10/24 02:56:06;;;;;;;13.48;9.02;;;;;;;11.18;79.87;100353.53;4914441;29;20054;-71
2022/10/24 02:58:32;;;;;;;16.08;9.52;;;;;;;11.20;79.29;100356.84;4913766;29;20048;-71
2022/10/24 03:00:59;;;;;;;17.65;8.82;;;;;;;10.90;79.93;100345.06;4913918;29;20051;-71
2022/10/24 03:03:25;;;;;;;17.75;9.07;;;;;;;10.90;80.97;100344.22;4913860;29;20048;-70
2022/10/24 03:05:52;;;;;;;12.43;9.02;;;;;;;11.07;80.02;100343.16;4914334;29;20044;-71
2022/10/24 03:08:18;;;;;;;15.02;8.48;;;;;;;10.99;80.18;100333.28;4914227;29;20052;-72
2022/10/24 03:10:45;;;;;;;14.43;7.82;;;;;;;10.88;80.92;100335.50;4913275;29;20055;-71
2022/10/24 03:13:11;;;;;;;12.48;7.85;;;;;;;10.91;80.39;100335.16;4913991;29;20044;-69
2022/10/24 03:15:38;;;;;;;17.42;8.23;;;;;;;10.92;80.18;100336.81;4914230;29;20051;-71
2022/10/24 03:18:04;;;;;;;13.82;8.02;;;;;;;11.00;80.27;100344.88;4913162;29;20086;-70
2022/10/24 03:20:31;;;;;;;16.45;8.82;;;;;;;10.96;79.86;100347.06;4913559;29;20055;-69
2022/10/24 03:22:57;;;;;;;15.20;7.68;;;;;;;10.90;80.29;100339.69;4914115;29;20059;-72
2022/10/24 03:25:24;;;;;;;19.48;8.65;;;;;;;11.03;79.77;100343.66;4913643;29;20052;-70
2022/10/24 03:27:50;;;;;;;14.75;7.88;;;;;;;11.04;79.40;100337.31;4913480;29;20044;-71
2022/10/24 03:30:17;;;;;;;15.35;7.28;;;;;;;10.92;80.06;100336.81;4913717;29;20052;-70
2022/10/24 03:32:43;;;;;;;14.10;7.32;;;;;;;11.02;79.28;100347.38;4913121;29;20493;-71
2022/10/24 03:35:10;;;;;;;10.43;7.50;;;;;;;11.05;79.10;100347.03;4914444;29;20558;-71
2022/10/24 03:37:40;;;;;;;14.10;6.90;;;;;;;10.91;79.27;100344.03;4914094;29;20441;-71
2022/10/24 03:40:07;;;;;;;12.13;6.18;;;;;;;10.92;79.43;100348.38;4913046;29;20044;-71
2022/10/24 03:42:34;;;;;;;13.93;6.93;;;;;;;11.10;79.23;100344.66;4913536;29;20047;-71
2022/10/24 03:45:00;;;;;;;10.90;6.22;;;;;;;11.09;79.15;100348.34;4913734;29;20060;-71
2022/10/24 03:47:27;;;;;;;19.10;6.95;;;;;;;11.05;78.83;100347.03;4912232;29;20051;-71
2022/10/24 03:49:53;;;;;;;12.70;6.90;;;;;;;10.97;79.13;100345.22;4913863;29;20060;-71
2022/10/24 03:52:20;;;;;;;15.77;6.53;;;;;;;11.03;78.87;100346.34;4913642;29;20058;-71
2022/10/24 03:54:46;;;;;;;14.35;6.43;;;;;;;10.86;79.40;100341.06;4913653;29;20055;-71
2022/10/24 03:57:13;;;;;;;9.07;5.97;;;;;;;10.96;78.92;100344.38;4913453;29;20059;-68
2022/10/24 03:59:39;;;;;;;13.98;6.00;;;;;;;10.92;79.48;100355.59;4913612;29;20127;-71
2022/10/24 04:02:06;;;;;;;17.65;6.80;;;;;;;10.93;79.32;100352.78;4912735;29;20074;-70
2022/10/24 04:04:33;;;;;;;13.63;6.95;;;;;;;11.05;78.85;100353.22;4913465;29;20493;-71
2022/10/24 04:06:59;;;;;;;12.27;6.38;;;;;;;11.01;78.72;100356.44;4913040;29;20055;-70
2022/10/24 04:09:26;;;;;;;15.95;6.22;;;;;;;10.93;79.20;100349.25;4913655;29;20404;-70
2022/10/24 04:11:53;;;;;;;12.43;6.15;;;;;;;10.91;79.20;100349.41;4914303;29;20059;-70
2022/10/24 04:14:20;;;;;;;16.73;5.88;;;;;;;10.95;79.07;100348.06;4916979;29;20059;-70
2022/10/24 04:16:46;;;;;;;11.90;5.47;;;;;;;10.86;78.96;100348.25;4917089;29;20052;-70
2022/10/24 04:19:15;;;;;;;13.35;6.28;;;;;;;11.04;78.73;100356.94;4916111;29;20055;-71
2022/10/24 04:21:43;;;;;;;14.93;6.10;;;;;;;10.95;78.62;100349.91;4916938;29;20044;-71
2022/10/24 04:24:10;;;;;;;11.48;5.97;;;;;;;10.79;79.58;100342.75;4917202;29;20050;-70
2022/10/24 04:26:37;;;;;;;8.50;5.65;;;;;;;10.92;78.69;100343.03;4917027;29;20048;-70
2022/10/24 04:29:03;;;;;;;12.07;6.82;;;;;;;10.87;79.19;100337.34;4916222;29;20056;-70
2022/10/24 04:31:30;;;;;;;12.88;5.57;;;;;;;10.86;79.53;100338.38;4916833;29;20055;-70
2022/10/24 04:33:56;;;;;;;11.70;5.47;;;;;;;10.91;79.03;100346.72;4916870;29;20048;-72
2022/10/24 04:36:23;;;;;;;11.95;6.35;;;;;;;10.93;78.92;100343.88;4916013;29;20501;-71
2022/10/24 04:38:49;;;;;;;11.35;5.93;;;;;;;10.99;78.90;100354.75;4915981;29;20052;-69
2022/10/24 04:41:16;;;;;;;13.55;5.90;;;;;;;10.87;79.03;100361.50;4916550;29;20055;-70
2022/10/24 04:43:42;;;;;;;8.48;5.50;;;;;;;11.03;78.78;100346.34;4917101;29;20044;-71
2022/10/24 04:46:09;;;;;;;15.63;6.38;;;;;;;11.04;78.69;100351.56;4916583;29;20059;-70
2022/10/24 04:48:35;;;;;;;14.10;5.90;;;;;;;11.05;78.79;100345.19;4916776;29;20048;-70
2022/10/24 04:51:02;;;;;;;11.55;5.97;;;;;;;10.93;78.75;100344.72;4916073;29;20052;-70
2022/10/24 04:53:28;;;;;;;13.30;5.43;;;;;;;11.08;78.92;100346.69;4913489;29;20051;-72
2022/10/24 04:55:55;;;;;;;13.50;6.35;;;;;;;11.01;78.97;100357.28;4916579;29;20449;-71
2022/10/24 04:58:22;;;;;;;13.57;5.85;;;;;;;11.03;78.93;100359.78;4915752;29;20453;-70
2022/10/24 05:00:49;;;;;;;13.75;5.97;;;;;;;10.98;78.97;100362.97;4899182;29;20437;-69
2022/10/24 05:03:17;;;;;;;10.57;4.90;;;;;;;10.96;79.01;100371.22;4897381;29;20402;-69
2022/10/24 05:05:43;;;;;;;12.13;6.00;;;;;;;10.82;79.43;100369.22;4897900;29;20067;-70
2022/10/24 05:08:10;;;;;;;10.75;5.57;;;;;;;10.83;79.32;100375.44;4908291;29;20051;-71
2022/10/24 05:10:37;;;;;;;14.27;6.28;;;;;;;10.87;79.29;100379.44;4916123;29;20048;-71
2022/10/24 05:13:03;;;;;;;14.55;6.03;;;;;;;10.80;79.65;100381.97;4882328;29;20052;-70
2022/10/24 05:15:30;;;;;;;13.02;5.30;;;;;;;10.84;79.71;100377.94;4870226;29;20057;-70
2022/10/24 05:17:57;;;;;;;11.30;5.80;;;;;;;10.91;79.22;100376.25;4878866;29;20544;-71
2022/10/24 05:20:24;;;;;;;16.83;6.13;;;;;;;10.91;79.33;100367.38;4878668;29;20060;-72
2022/10/24 05:22:51;;;;;;;13.32;5.82;;;;;;;10.74;79.63;100370.06;4878495;29;20053;-69
2022/10/24 05:25:18;;;;;;;12.50;5.80;;;;;;;10.86;79.49;100370.56;4878910;29;20055;-71
2022/10/24 05:27:45;;;;;;;13.07;5.43;;;;;;;10.84;79.33;100371.75;4879373;29;20512;-71
2022/10/24 05:30:11;;;;;;;12.48;5.45;;;;;;;10.88;79.08;100370.38;4877966;29;20426;-70
2022/10/24 05:32:38;;;;;;;12.25;5.85;;;;;;;10.87;79.37;100374.91;4877904;29;20045;-71
2022/10/24 05:35:05;;;;;;;14.32;5.45;;;;;;;10.91;79.18;100364.69;4878332;29;20053;-71
2022/10/24 05:37:32;;;;;;;16.67;5.97;;;;;;;10.91;79.07;100362.00;4878278;29;20067;-69
2022/10/24 05:39:59;;;;;;;15.35;6.03;;;;;;;10.84;79.11;100364.53;4877943;29;20048;-71
2022/10/24 05:42:25;;;;;;;12.13;5.95;;;;;;;11.01;78.62;100354.59;4878030;29;20056;-71
2022/10/24 05:44:52;;;;;;;10.77;5.90;;;;;;;11.06;78.68;100349.53;4878489;29;20049;-71
2022/10/24 05:47:18;;;;;;;16.58;6.15;;;;;;;10.99;78.56;100349.38;4878441;29;20064;-71
2022/10/24 05:49:44;;;;;;;10.77;5.75;;;;;;;11.14;78.08;100340.63;4878264;29;20052;-70
2022/10/24 05:52:11;;;;;;;10.02;6.25;;;;;;;11.22;77.73;100349.47;4878813;29;20056;-71
2022/10/24 05:54:37;;;;;;;12.98;5.40;;;;;;;11.17;77.94;100348.31;4878606;29;20417;-71
2022/10/24 05:57:24;;;;;;;17.08;6.60;;;;;;;11.24;77.89;100349.31;4877225;29;20049;-71
2022/10/24 05:59:50;;;;;;;12.82;5.68;;;;;;;11.14;78.12;100367.47;4877927;29;20052;-71
2022/10/24 06:02:19;;;;;;;11.43;5.65;;;;;;;11.36;77.38;100361.34;4877289;29;20074;-70
2022/10/24 06:04:47;;;;;;;15.63;5.97;;;;;;;11.33;77.28;100360.84;4878105;29;20049;-72
2022/10/24 06:07:13;;;;;;;18.17;6.28;;;;;;;11.35;77.17;100354.31;4884608;29;20048;-71
2022/10/24 06:09:40;;;;;;;14.93;5.95;;;;;;;11.47;76.80;100349.38;4915726;29;20055;-71
2022/10/24 06:12:11;;;;;;;21.80;6.82;;;;;;;11.45;76.32;100341.50;4914650;29;20067;-71
2022/10/24 06:14:38;;;;;;;15.18;6.82;;;;;;;11.26;77.13;100327.66;4915164;29;20422;-71
2022/10/24 06:17:07;;;;;;;23.15;7.13;;;;;;;11.43;76.94;100334.63;4915657;29;20055;-71
2022/10/24 06:19:35;;;;;;;15.25;6.50;;;;;;;11.26;77.24;100339.22;4913968;29;20059;-71
2022/10/24 06:22:07;;;;;;;16.75;6.80;;;;;;;11.46;77.05;100334.28;4915245;29;20048;-71
2022/10/24 06:24:35;;;;;;;12.50;6.32;;;;;;;11.41;76.66;100353.63;4914916;29;20074;-71
2022/10/24 06:27:03;;;;;;;14.15;6.00;;;;;;;11.38;76.87;100353.97;4913984;29;20052;-70
2022/10/24 06:29:30;;;;;;;18.55;6.78;;;;;;;11.25;77.40;100352.84;4914877;29;20052;-71
2022/10/24 06:31:56;;;;;;;17.48;6.75;;;;;;;11.46;76.74;100348.53;4914550;29;20067;-71
2022/10/24 06:34:23;;;;;;;24.30;7.47;;;;;;;11.60;75.88;100346.97;4884451;29;20053;-71
2022/10/24 06:36:49;;;;;;;17.83;6.28;;;;;;;11.44;76.94;100344.34;4875720;29;20056;-70
2022/10/24 06:39:16;;;;;;;19.50;6.20;;;;;;;11.45;76.58;100354.09;4877622;29;20049;-72
2022/10/24 06:41:42;;;;;;;15.95;6.70;;;;;;;11.50;76.42;100358.94;4877513;29;20049;-71
2022/10/24 06:44:09;;;;;;;18.80;6.35;;;;;;;11.40;76.64;100356.47;4875994;29;20049;-70
2022/10/24 06:46:36;;;;;;;14.23;6.53;;;;;;;11.42;76.99;100354.44;4876744;29;20474;-71
2022/10/24 06:49:03;;;;;;;21.15;6.97;;;;;;;11.41;77.01;100368.88;4876953;29;20052;-69
2022/10/24 06:51:30;;;;;;;17.42;6.03;;;;;;;11.20;77.67;100353.34;4876302;29;20512;-71
2022/10/24 06:53:57;;;;;;;18.42;6.63;;;;;;;11.38;77.15;100359.34;4877368;29;20060;-70
2022/10/24 06:56:24;;;;;;;14.63;6.68;;;;;;;11.44;77.03;100368.53;4873359;29;20049;-71
2022/10/24 06:58:50;;;;;;;13.77;7.05;;;;;;;11.32;77.13;100376.13;4876620;29;20056;-71
2022/10/24 07:01:22;;;;;;;13.93;6.43;;;;;;;11.34;77.26;100379.47;4877635;29;20509;-70
2022/10/24 07:03:50;;;;;;;28.55;8.88;;;;;;;11.21;77.71;100388.09;4876357;29;20049;-71
2022/10/24 07:06:19;;;;;;;16.50;7.47;;;;;;;11.44;76.82;100404.28;4877252;29;20426;-71
2022/10/24 07:08:46;;;;;;;13.50;6.43;;;;;;;11.56;76.51;100409.28;4906958;29;20598;-71
2022/10/24 07:11:13;;;;;;;19.30;7.07;;;;;;;11.57;76.58;100405.59;4914478;29;20044;-71
2022/10/24 07:13:39;;;;;;;14.48;6.38;;;;;;;11.65;76.57;100409.06;4914439;29;20048;-70
2022/10/24 07:16:06;;;;;;;14.07;6.22;;;;;;;11.63;76.65;100400.34;4914760;29;20052;-71
2022/10/24 07:18:33;;;;;;;20.17;6.35;;;;;;;11.62;76.37;100404.06;4914310;29;20493;-71
2022/10/24 07:21:05;;;;;;;15.90;7.43;;;;;;;11.88;75.67;100395.72;4914213;29;20131;-71
2022/10/24 07:23:32;;;;;;;22.33;7.22;;;;;;;11.87;75.53;100398.59;4913957;29;20210;-71
2022/10/24 07:26:07;;;;;;;17.38;7.10;;;;;;;12.00;75.20;100390.75;4913712;29;20056;-72
2022/10/24 07:28:36;;;;;;;18.55;9.93;;;;;;;12.06;75.06;100395.44;4913925;29;20052;-71
2022/10/24 07:31:03;;;;;;;20.65;9.95;;;;;;;11.99;75.32;100390.94;4914068;29;20055;-70
2022/10/24 07:33:30;;;;;;;21.30;9.15;;;;;;;11.92;75.50;100394.34;4895443;29;20052;-72
2022/10/24 07:35:57;;;;;;;18.77;7.75;;;;;;;12.00;75.63;100400.69;4877072;29;20052;-71
2022/10/24 07:38:24;;;;;;;20.17;7.60;;;;;;;12.28;74.91;100404.56;4876558;29;20045;-71
2022/10/24 07:40:50;;;;;;;20.33;7.13;;;;;;;12.07;75.53;100402.50;4876754;29;20049;-68
2022/10/24 07:43:17;;;;;;;19.17;6.53;;;;;;;11.92;76.11;100409.63;4877064;29;20052;-70
2022/10/24 07:45:44;;;;;;;18.98;6.57;;;;;;;12.02;76.26;100406.72;4877841;29;20055;-71
2022/10/24 07:48:18;;;;;;;15.95;6.47;;;;;;;12.28;75.67;100409.06;4880592;29;20072;-71
2022/10/24 07:50:46;;;;;;;16.85;6.57;;;;;;;12.54;74.63;100406.03;4879910;29;20045;-71
2022/10/24 07:53:13;;;;;;;14.57;5.22;;;;;;;12.25;75.55;100410.28;4880020;29;20057;-71
2022/10/24 07:55:41;;;;;;;13.82;5.53;;;;;;;12.27;75.68;100413.63;4880090;29;20136;-72
2022/10/24 07:58:09;;;;;;;14.13;5.35;;;;;;;12.34;75.50;100413.75;4879321;29;20053;-71
2022/10/24 08:00:36;;;;;;;11.18;5.00;;;;;;;12.39;75.44;100408.66;4880012;29;20049;-71
2022/10/24 08:03:09;;;;;;;11.23;5.32;;;;;;;12.40;75.36;100413.03;4879898;29;20048;-71
2022/10/24 08:05:38;;;;;;;18.83;5.40;;;;;;;12.54;74.84;100403.34;4879379;29;20517;-71
2022/10/24 08:08:05;;;;;;;15.73;5.00;;;;;;;12.69;74.25;100395.28;4899237;29;20492;-71
2022/10/24 08:10:52;;;;;;;13.82;4.75;;;;;;;12.82;74.06;100400.94;4916638;29;20056;-71
2022/10/24 08:13:18;;;;;;;17.02;4.57;;;;;;;12.88;74.15;100400.19;4917468;29;20055;-71
2022/10/24 08:15:45;;;;;;;16.00;4.55;;;;;;;12.91;73.48;100404.38;4917088;29;20059;-71
2022/10/24 08:18:12;;;;;;;21.15;5.32;;;;;;;13.15;72.99;100404.13;4917493;29;20496;-71
2022/10/24 08:20:38;;;;;;;12.60;4.22;;;;;;;13.31;73.06;100405.78;4917067;29;20517;-71
2022/10/24 08:23:05;;;;;;;20.20;4.32;;;;;;;13.35;72.33;100404.41;4916731;29;20047;-70
2022/10/24 08:25:31;;;;;;;11.85;4.35;;;;;;;13.33;72.17;100401.91;4917566;29;20056;-71
2022/10/24 08:27:58;;;;;;;23.45;4.63;;;;;;;13.73;71.19;100404.28;4917225;29;20071;-71
2022/10/24 08:30:25;;;;;;;10.18;4.68;;;;;;;13.99;70.09;100401.94;4916466;29;20052;-69
2022/10/24 08:32:52;;;;;;;15.07;4.00;;;;;;;13.82;70.45;100405.88;4917193;29;20052;-72
2022/10/24 08:35:19;;;;;;;20.38;4.35;;;;;;;14.00;69.73;100400.88;4915890;29;20059;-71
2022/10/24 08:37:45;;;;;;;17.02;4.43;;;;;;;14.44;69.03;100396.38;4917312;29;20063;-72
2022/10/24 08:40:16;;;;;;;13.02;4.55;;;;;;;14.51;68.61;100402.66;4917078;29;20058;-72
2022/10/24 08:42:43;;;;;;;16.20;4.15;;;;;;;14.55;68.50;100401.22;4916078;29;20048;-72
2022/10/24 08:45:24;;;;;;;17.50;4.10;;;;;;;14.73;67.89;100404.31;4916854;29;20097;-72
2022/10/24 08:48:11;;;;;;;13.20;3.70;;;;;;;15.07;67.17;100412.69;4916322;29;20383;-71
2022/10/24 08:50:43;;;;;;;19.35;4.28;;;;;;;14.84;67.25;100400.25;4899025;29;20055;-71
2022/10/24 08:53:20;;;;;;;15.32;4.28;;;;;;;14.77;67.30;100392.13;4915167;29;20056;-69
2022/10/24 08:55:52;;;;;;;20.67;4.20;;;;;;;14.66;68.08;100389.06;4915766;29;20060;-71
2022/10/24 08:58:29;;;;;;;17.98;3.97;;;;;;;14.92;67.20;100392.00;4915628;29;20517;-71
2022/10/24 09:00:59;;;;;;;29.17;4.80;;;;;;;14.81;66.76;100391.69;4916206;29;20591;-72
2022/10/24 09:03:34;;;;;;;15.98;4.20;;;;;;;14.98;67.29;100377.72;4916237;29;20112;-71
2022/10/24 09:06:24;;;;;;;21.20;4.68;;;;;;;14.82;67.51;100385.28;4916199;29;20434;-71
2022/10/24 09:08:57;;;;;;;17.48;3.90;;;;;;;14.90;66.98;100382.44;4915761;29;20047;-71
2022/10/24 09:11:27;;;;;;;20.80;4.03;;;;;;;14.86;66.98;100389.25;4916433;29;20051;-71
2022/10/24 09:13:54;;;;;;;25.63;4.40;;;;;;;14.90;67.38;100396.78;4916531;29;20048;-71
2022/10/24 09:16:23;;;;;;;22.40;4.07;;;;;;;15.07;67.16;100385.66;4916046;29;20048;-71
2022/10/24 09:18:55;;;;;;;16.13;3.53;;;;;;;14.74;66.92;100395.22;4915949;29;20071;-71
2022/10/24 09:21:22;;;;;;;14.63;3.90;;;;;;;14.93;67.16;100390.97;4916082;29;20059;-71
2022/10/24 09:23:50;;;;;;;14.88;4.03;;;;;;;14.79;67.44;100394.63;4916290;29;20048;-71
2022/10/24 09:26:24;;;;;;;16.88;4.93;;;;;;;14.85;67.65;100388.44;4916004;29;20056;-69
2022/10/24 09:28:53;;;;;;;22.05;3.83;;;;;;;14.96;67.09;100395.16;4915949;29;20409;-71
2022/10/24 09:31:23;;;;;;;21.48;3.67;;;;;;;14.95;66.84;100388.09;4916236;29;20052;-71
2022/10/24 09:33:51;;;;;;;13.25;3.70;;;;;;;15.24;66.39;100387.84;4915883;29;20052;-71
2022/10/24 09:36:20;;;;;;;15.82;3.75;;;;;;;15.24;66.34;100370.81;4916225;29;20067;-71
2022/10/24 09:38:50;;;;;;;21.98;4.25;;;;;;;15.14;65.96;100384.66;4915464;29;20067;-70
2022/10/24 09:41:26;;;;;;;19.13;3.78;;;;;;;15.13;66.19;100380.31;4915769;29;20044;-70
2022/10/24 09:43:55;;;;;;;16.50;4.28;;;;;;;15.32;65.13;100377.91;4915469;29;20494;-71
2022/10/24 09:46:28;;;;;;;21.08;3.90;;;;;;;15.32;65.14;100380.63;4916075;29;20058;-71
2022/10/24 09:49:02;;;;;;;10.05;3.15;;;;;;;15.46;64.86;100385.88;4914741;29;20044;-70
2022/10/24 09:51:36;;;;;;;16.30;3.55;;;;;;;15.29;65.00;100391.81;4914387;29;20052;-72
2022/10/24 09:54:18;;;;;;;16.48;3.20;;;;;;;15.49;64.82;100390.88;4915804;29;20048;-71
2022/10/24 09:57:10;;;;;;;17.77;3.28;;;;;;;15.32;65.12;100402.22;4915740;29;20055;-72
2022/10/24 09:59:44;;;;;;;14.30;3.72;;;;;;;15.44;65.16;100393.38;4905077;29;20044;-71
2022/10/24 10:02:23;;;;;;;12.30;3.13;;;;;;;15.53;64.84;100395.91;4914960;29;20052;-70
2022/10/24 10:05:02;;;;;;;12.00;3.65;;;;;;;15.40;65.04;100388.56;4914436;29;20048;-71
2022/10/24 10:07:41;;;;;;;19.67;3.75;;;;;;;15.66;64.53;100380.59;4915519;29;20052;-71
2022/10/24 10:10:17;;;;;;;26.98;3.25;;;;;;;15.45;64.62;100383.38;4913882;29;20078;-71
2022/10/24 10:12:47;;;;;;;20.73;3.30;;;;;;;15.63;63.98;100386.41;4914473;29;20054;-71
2022/10/24 10:15:42;;;;;;;22.27;3.85;;;;;;;15.56;64.19;100385.50;4898008;29;20052;-71
2022/10/24 10:18:29;;;;;;;13.25;3.45;;;;;;;15.64;63.74;100374.56;4913087;29;20098;-71
2022/10/24 10:21:10;;;;;;;15.68;3.38;;;;;;;15.87;63.49;100387.75;4914711;29;20501;-71
2022/10/24 10:23:41;;;;;;;19.98;3.80;;;;;;;15.42;64.07;100378.38;4914935;29;20054;-71
2022/10/24 10:26:27;;;;;;;22.23;3.88;;;;;;;15.68;63.69;100375.84;4914945;29;20048;-69
2022/10/24 10:29:05;;;;;;;16.13;3.72;;;;;;;15.59;63.97;100382.41;4914753;29;20044;-72
2022/10/24 10:31:45;;;;;;;20.80;3.65;;;;;;;15.78;63.54;100380.88;4914037;29;20055;-71
2022/10/24 10:34:20;;;;;;;23.23;3.88;;;;;;;15.59;64.25;100379.72;4914427;29;20055;-71
2022/10/24 10:37:05;;;;;;;13.57;3.55;;;;;;;15.67;63.88;100382.28;4904688;29;20512;-71
2022/10/24 10:39:44;;;;;;;12.23;2.55;;;;;;;15.68;64.00;100375.84;4913727;29;20047;-69
2022/10/24 10:42:23;;;;;;;15.95;2.88;;;;;;;15.73;63.81;100377.09;4913630;29;20052;-71
2022/10/24 10:45:09;;;;;;;15.52;3.20;;;;;;;15.74;63.57;100381.47;4914510;29;20413;-72
2022/10/24 10:48:00;;;;;;;17.05;3.50;;;;;;;15.80;63.46;100369.84;4914231;29;20048;-71
2022/10/24 10:50:41;;;;;;;14.77;3.22;;;;;;;15.65;63.29;100368.13;4914004;29;20413;-71
2022/10/24 10:53:32;;;;;;;10.50;2.80;;;;;;;15.69;63.19;100366.69;4912652;29;20056;-72
2022/10/24 10:56:09;;;;;;;13.75;2.90;;;;;;;15.62;63.19;100375.78;4914352;29;20063;-71
2022/10/24 10:59:04;;;;;;;14.55;3.38;;;;;;;15.61;63.64;100374.13;4914295;29;20056;-71
2022/10/24 11:01:48;;;;;;;14.40;2.97;;;;;;;15.58;63.25;100361.81;4907884;29;20055;-71
2022/10/24 11:04:39;;;;;;;18.15;3.22;;;;;;;15.96;62.09;100369.47;4913335;29;20048;-71
2022/10/24 11:07:11;;;;;;;21.08;3.13;;;;;;;15.77;62.63;100364.81;4913006;29;20397;-71
2022/10/24 11:09:44;;;;;;;17.75;3.50;;;;;;;16.08;61.66;100362.41;4912776;29;20051;-71
2022/10/24 11:12:18;;;;;;;14.45;2.97;;;;;;;15.85;62.34;100367.38;4902824;29;20074;-72
2022/10/24 11:14:51;;;;;;;14.25;3.22;;;;;;;15.98;61.45;100356.56;4913927;29;20102;-71
2022/10/24 11:17:23;;;;;;;25.40;3.30;;;;;;;15.89;62.22;100363.22;4913410;29;20070;-71
2022/10/24 11:20:01;;;;;;;16.23;3.20;;;;;;;15.86;62.20;100369.84;4913912;29;20059;-71
2022/10/24 11:22:35;;;;;;;15.90;3.03;;;;;;;15.67;62.76;100371.47;4912397;29;20052;-71
2022/10/24 11:25:17;;;;;;;18.83;2.92;;;;;;;15.75;62.39;100366.91;4913467;29;20075;-71
2022/10/24 11:27:53;;;;;;;15.15;3.13;;;;;;;15.74;62.24;100359.81;4912348;29;20058;-72
2022/10/24 11:30:36;;;;;;;20.52;2.78;;;;;;;15.89;62.02;100357.81;4911879;29;20056;-71
2022/10/24 11:33:15;;;;;;;16.42;3.33;;;;;;;15.74;62.24;100367.94;4913203;29;20104;-71